createdAt,value
2022-09-24T00:01:38.486Z,14.90
2022-09-24T00:05:02.138Z,14.90
2022-09-24T00:08:25.697Z,14.80
2022-09-24T00:11:51.165Z,14.80
2022-09-24T00:15:16.173Z,14.80
2022-09-24T00:18:40.866Z,14.80
2022-09-24T00:22:04.469Z,14.80
2022-09-24T00:25:53.867Z,14.80
2022-09-24T00:29:19.685Z,14.80
2022-09-24T00:32:44.625Z,14.70
2022-09-24T00:36:11.283Z,14.80
2022-09-24T00:39:34.822Z,14.70
2022-09-24T00:42:58.562Z,14.80
2022-09-24T00:46:27.398Z,14.80
2022-09-24T00:49:52.908Z,14.80
2022-09-24T00:53:19.482Z,14.90
2022-09-24T00:56:45.504Z,14.80
2022-09-24T01:00:10.367Z,14.80
2022-09-24T01:03:40.981Z,14.60
2022-09-24T01:07:05.965Z,14.50
2022-09-24T01:10:51.653Z,14.50
2022-09-24T01:14:41.222Z,14.50
2022-09-24T01:18:09.007Z,14.50
2022-09-24T01:21:39.984Z,14.50
2022-09-24T01:25:14.256Z,14.50
2022-09-24T01:28:52.325Z,14.60
2022-09-24T01:32:22.559Z,14.50
2022-09-24T01:35:50.083Z,14.40
2022-09-24T01:39:15.171Z,14.30
2022-09-24T01:42:40.765Z,14.30
2022-09-24T01:46:07.279Z,14.30
2022-09-24T01:49:32.314Z,14.30
2022-09-24T01:53:02.746Z,14.30
2022-09-24T01:56:31.367Z,14.20
2022-09-24T02:00:00.324Z,14.20
2022-09-24T02:03:29.757Z,14.20
2022-09-24T02:07:01.900Z,14.10
2022-09-24T02:10:25.846Z,14.10
2022-09-24T02:13:54.819Z,14.10
2022-09-24T02:17:19.386Z,14.10
2022-09-24T02:20:45.079Z,14.10
2022-09-24T02:24:15.085Z,14.20
2022-09-24T02:27:39.056Z,14.10
2022-09-24T02:31:07.861Z,14.10
2022-09-24T02:34:35.360Z,14.00
2022-09-24T02:38:02.749Z,14.00
2022-09-24T02:41:32.133Z,14.00
2022-09-24T02:44:57.373Z,14.00
2022-09-24T02:48:20.889Z,14.00
2022-09-24T02:51:45.203Z,14.00
2022-09-24T02:55:09.200Z,14.00
2022-09-24T02:58:34.627Z,14.00
2022-09-24T03:01:58.320Z,14.10
2022-09-24T03:05:21.978Z,14.00
2022-09-24T03:08:45.835Z,14.00
2022-09-24T03:12:09.652Z,14.00
2022-09-24T03:15:34.544Z,14.00
2022-09-24T03:18:58.111Z,14.00
2022-09-24T03:22:21.827Z,14.10
2022-09-24T03:25:45.405Z,14.00
2022-09-24T03:29:10.118Z,14.00
2022-09-24T03:32:34.425Z,14.10
2022-09-24T03:35:59.232Z,14.00
2022-09-24T03:39:22.781Z,14.00
2022-09-24T03:42:46.480Z,14.00
2022-09-24T03:46:17.032Z,14.00
2022-09-24T03:49:42.389Z,14.10
2022-09-24T03:53:06.155Z,14.00
2022-09-24T03:56:29.695Z,14.00
2022-09-24T03:59:54.098Z,14.00
2022-09-24T04:03:17.848Z,14.00
2022-09-24T04:06:42.882Z,13.90
2022-09-24T04:10:07.301Z,13.90
2022-09-24T04:13:31.055Z,13.70
2022-09-24T04:16:54.569Z,13.70
2022-09-24T04:20:22.637Z,13.70
2022-09-24T04:23:47.545Z,13.70
2022-09-24T04:27:11.180Z,13.60
2022-09-24T04:30:36.301Z,13.60
2022-09-24T04:34:00.050Z,13.60
2022-09-24T04:37:23.901Z,13.50
2022-09-24T04:40:49.283Z,13.40
2022-09-24T04:44:13.272Z,13.40
2022-09-24T04:47:37.149Z,13.50
2022-09-24T04:51:02.075Z,13.50
2022-09-24T04:54:26.029Z,13.40
2022-09-24T04:57:51.379Z,13.40
2022-09-24T05:01:15.475Z,13.40
2022-09-24T05:04:39.469Z,13.50
2022-09-24T05:08:04.735Z,13.50
2022-09-24T05:11:29.035Z,13.50
2022-09-24T05:14:53.946Z,13.40
2022-09-24T05:18:17.461Z,13.40
2022-09-24T05:21:40.983Z,13.40
2022-09-24T05:25:04.806Z,13.40
2022-09-24T05:28:27.361Z,13.50
2022-09-24T05:31:52.604Z,13.40
2022-09-24T05:35:16.596Z,13.50
2022-09-24T05:38:41.861Z,13.50
2022-09-24T05:42:06.841Z,13.40
2022-09-24T05:45:30.854Z,13.40
2022-09-24T05:48:55.862Z,13.30
2022-09-24T05:52:19.430Z,13.30
2022-09-24T05:55:44.037Z,13.10
2022-09-24T05:59:07.686Z,13.10
2022-09-24T06:02:31.418Z,13.00
2022-09-24T06:05:59.581Z,13.00
2022-09-24T06:09:23.097Z,13.00
2022-09-24T06:12:47.084Z,13.00
2022-09-24T06:16:12.663Z,13.00
2022-09-24T06:19:36.244Z,13.10
2022-09-24T06:23:02.304Z,13.10
2022-09-24T06:26:27.278Z,13.00
2022-09-24T06:29:50.975Z,12.90
2022-09-24T06:33:15.085Z,12.70
2022-09-24T06:36:40.134Z,12.60
2022-09-24T06:40:06.129Z,12.70
2022-09-24T06:43:29.792Z,12.70
2022-09-24T06:46:53.489Z,12.70
2022-09-24T06:50:17.677Z,12.90
2022-09-24T06:53:41.868Z,13.00
2022-09-24T06:57:08.863Z,13.20
2022-09-24T07:00:32.673Z,13.20
2022-09-24T07:03:56.408Z,13.30
2022-09-24T07:07:33.201Z,13.50
2022-09-24T07:10:56.937Z,13.60
2022-09-24T07:14:22.050Z,13.80
2022-09-24T07:17:45.681Z,13.90
2022-09-24T07:21:09.333Z,13.80
2022-09-24T07:24:32.962Z,13.80
2022-09-24T07:27:56.575Z,13.80
2022-09-24T07:31:21.836Z,13.70
2022-09-24T07:34:45.854Z,13.70
2022-09-24T07:38:12.980Z,13.60
2022-09-24T07:41:41.943Z,13.50
2022-09-24T07:45:06.209Z,13.50
2022-09-24T07:48:31.178Z,13.50
2022-09-24T07:51:55.077Z,13.50
2022-09-24T07:55:18.801Z,13.70
2022-09-24T07:58:42.370Z,13.80
2022-09-24T08:02:15.091Z,13.90
2022-09-24T08:05:45.490Z,13.90
2022-09-24T08:09:09.328Z,14.00
2022-09-24T08:12:33.031Z,14.00
2022-09-24T08:15:59.124Z,14.10
2022-09-24T08:19:22.919Z,14.30
2022-09-24T08:22:48.325Z,14.60
2022-09-24T08:26:12.836Z,14.80
2022-09-24T08:29:36.944Z,15.00
2022-09-24T08:33:00.680Z,15.20
2022-09-24T08:36:24.300Z,15.40
2022-09-24T08:39:49.275Z,15.40
2022-09-24T08:43:24.865Z,15.30
2022-09-24T08:47:11.185Z,15.40
2022-09-24T08:50:39.484Z,15.20
2022-09-24T08:54:06.636Z,15.20
2022-09-24T08:57:38.168Z,15.30
2022-09-24T09:01:08.528Z,15.30
2022-09-24T09:04:39.961Z,15.50
2022-09-24T09:08:33.781Z,15.40
2022-09-24T09:12:01.813Z,15.40
2022-09-24T09:15:30.014Z,15.50
2022-09-24T09:18:58.960Z,15.30
2022-09-24T09:22:28.242Z,15.40
2022-09-24T09:25:56.946Z,15.40
2022-09-24T09:29:20.574Z,15.50
2022-09-24T09:32:59.730Z,15.60
2022-09-24T09:36:45.353Z,15.60
2022-09-24T09:40:30.694Z,15.50
2022-09-24T09:44:00.739Z,15.40
2022-09-24T09:47:35.927Z,15.20
2022-09-24T09:51:05.159Z,14.90
2022-09-24T09:54:38.019Z,14.90
2022-09-24T09:58:17.778Z,14.90
2022-09-24T10:01:43.894Z,14.80
2022-09-24T10:05:22.221Z,14.80
2022-09-24T10:08:51.904Z,14.80
2022-09-24T10:12:21.959Z,15.00
2022-09-24T10:15:51.898Z,15.00
2022-09-24T10:19:21.467Z,15.10
2022-09-24T10:22:50.352Z,15.10
2022-09-24T10:26:16.101Z,15.20
2022-09-24T10:29:57.501Z,15.50
2022-09-24T10:33:21.449Z,15.60
2022-09-24T10:36:51.613Z,15.80
2022-09-24T10:40:16.791Z,15.90
2022-09-24T10:43:51.507Z,16.00
2022-09-24T10:47:26.622Z,16.10
2022-09-24T10:50:57.026Z,16.20
2022-09-24T10:54:40.046Z,16.20
2022-09-24T10:58:07.324Z,16.50
2022-09-24T11:01:42.835Z,16.50
2022-09-24T11:05:13.148Z,16.40
2022-09-24T11:08:56.846Z,16.30
2022-09-24T11:12:30.241Z,16.30
2022-09-24T11:16:16.187Z,16.40
2022-09-24T11:20:13.989Z,16.50
2022-09-24T11:24:06.430Z,16.90
2022-09-24T11:27:52.540Z,17.20
2022-09-24T11:31:24.451Z,17.40
2022-09-24T11:35:14.812Z,17.30
2022-09-24T11:38:49.862Z,17.20
2022-09-24T11:42:26.291Z,17.10
2022-09-24T11:46:03.651Z,17.30
2022-09-24T11:49:43.895Z,17.40
2022-09-24T11:53:14.895Z,17.50
2022-09-24T11:56:43.010Z,17.30
2022-09-24T12:00:13.702Z,17.40
2022-09-24T12:03:42.041Z,17.70
2022-09-24T12:07:12.313Z,17.90
2022-09-24T12:10:46.092Z,17.90
2022-09-24T12:14:15.636Z,17.80
2022-09-24T12:17:45.285Z,17.10
2022-09-24T12:21:12.456Z,16.90
2022-09-24T12:24:40.067Z,17.00
2022-09-24T12:28:05.216Z,17.00
2022-09-24T12:31:51.180Z,16.90
2022-09-24T12:35:25.285Z,16.70
2022-09-24T12:38:54.292Z,16.50
2022-09-24T12:42:21.726Z,16.30
2022-09-24T12:45:47.738Z,16.10
2022-09-24T12:49:25.476Z,15.70
2022-09-24T12:52:49.447Z,15.60
2022-09-24T12:56:13.205Z,15.50
2022-09-24T12:59:48.273Z,15.50
2022-09-24T13:03:32.319Z,15.40
2022-09-24T13:06:56.110Z,15.30
2022-09-24T13:10:25.849Z,15.30
2022-09-24T13:14:00.310Z,15.20
2022-09-24T13:17:24.822Z,15.30
2022-09-24T13:21:03.048Z,15.30
2022-09-24T13:24:31.316Z,15.30
2022-09-24T13:28:00.967Z,15.40
2022-09-24T13:31:30.999Z,15.50
2022-09-24T13:34:55.446Z,15.60
2022-09-24T13:38:25.537Z,15.70
2022-09-24T13:41:57.738Z,15.90
2022-09-24T13:45:23.596Z,16.00
2022-09-24T13:48:52.295Z,16.30
2022-09-24T13:52:27.326Z,16.50
2022-09-24T13:55:55.838Z,16.60
2022-09-24T13:59:19.557Z,16.50
2022-09-24T14:02:46.215Z,16.60
2022-09-24T14:06:15.250Z,16.70
2022-09-24T14:09:38.917Z,16.70
2022-09-24T14:13:22.183Z,16.70
2022-09-24T14:16:45.801Z,16.70
2022-09-24T14:20:15.618Z,16.60
2022-09-24T14:23:43.577Z,16.70
2022-09-24T14:27:10.490Z,16.80
2022-09-24T14:30:39.992Z,16.90
2022-09-24T14:34:05.890Z,16.90
2022-09-24T14:37:32.824Z,16.80
2022-09-24T14:41:01.245Z,16.80
2022-09-24T14:44:27.131Z,16.70
2022-09-24T14:48:02.621Z,16.60
2022-09-24T14:51:29.278Z,16.50
2022-09-24T14:55:02.991Z,16.40
2022-09-24T14:58:36.339Z,16.50
2022-09-24T15:02:17.252Z,16.30
2022-09-24T15:05:42.905Z,16.30
2022-09-24T15:09:08.966Z,16.20
2022-09-24T15:12:34.424Z,16.10
2022-09-24T15:16:07.176Z,16.10
2022-09-24T15:19:32.020Z,16.20
2022-09-24T15:22:57.058Z,16.20
2022-09-24T15:26:21.051Z,16.10
2022-09-24T15:29:44.645Z,16.00
2022-09-24T15:33:12.072Z,16.00
2022-09-24T15:36:35.739Z,16.10
2022-09-24T15:40:08.224Z,16.10
2022-09-24T15:43:32.005Z,16.10
2022-09-24T15:46:55.739Z,16.10
2022-09-24T15:50:20.219Z,16.20
2022-09-24T15:53:43.822Z,16.20
2022-09-24T15:57:11.957Z,16.20
2022-09-24T16:00:35.689Z,16.20
2022-09-24T16:03:59.323Z,16.20
2022-09-24T16:07:23.102Z,16.00
2022-09-24T16:10:47.406Z,16.00
2022-09-24T16:14:12.400Z,15.90
2022-09-24T16:17:36.108Z,15.80
2022-09-24T16:20:59.723Z,15.80
2022-09-24T16:24:23.496Z,15.90
2022-09-24T16:27:47.153Z,15.70
2022-09-24T16:31:12.110Z,15.50
2022-09-24T16:34:35.758Z,15.50
2022-09-24T16:37:59.378Z,15.40
2022-09-24T16:41:23.007Z,15.40
2022-09-24T16:44:46.688Z,15.40
2022-09-24T16:48:13.831Z,15.30
2022-09-24T16:51:37.918Z,15.20
2022-09-24T16:55:01.604Z,15.20
2022-09-24T16:58:25.196Z,15.10
2022-09-24T17:01:48.870Z,15.00
2022-09-24T17:05:14.038Z,14.90
2022-09-24T17:08:55.386Z,15.00
2022-09-24T17:12:19.200Z,14.90
2022-09-24T17:15:42.837Z,14.80
2022-09-24T17:19:07.968Z,14.80
2022-09-24T17:22:32.894Z,14.70
2022-09-24T17:26:02.603Z,14.70
2022-09-24T17:29:31.238Z,14.60
2022-09-24T17:32:56.268Z,14.60
2022-09-24T17:36:19.859Z,14.60
2022-09-24T17:39:44.883Z,14.60
2022-09-24T17:43:08.494Z,14.60
2022-09-24T17:46:35.377Z,14.60
2022-09-24T17:50:00.005Z,14.50
2022-09-24T17:53:23.707Z,14.50
2022-09-24T17:56:48.635Z,14.40
2022-09-24T18:00:12.980Z,14.40
2022-09-24T18:03:36.896Z,14.30
2022-09-24T18:07:00.489Z,14.30
2022-09-24T18:10:24.177Z,14.30
2022-09-24T18:13:54.226Z,14.30
2022-09-24T18:17:17.779Z,14.30
2022-09-24T18:20:42.080Z,14.30
2022-09-24T18:24:05.977Z,14.20
2022-09-24T18:27:36.324Z,14.20
2022-09-24T18:31:05.466Z,14.30
2022-09-24T18:34:29.742Z,14.30
2022-09-24T18:37:53.297Z,14.20
2022-09-24T18:41:20.725Z,14.20
2022-09-24T18:44:46.410Z,14.20
2022-09-24T18:48:11.360Z,14.20
2022-09-24T18:51:37.066Z,14.20
2022-09-24T18:55:00.847Z,14.10
2022-09-24T18:58:24.487Z,14.10
2022-09-24T19:01:50.705Z,14.10
2022-09-24T19:05:16.218Z,14.10
2022-09-24T19:08:40.673Z,14.10
2022-09-24T19:12:05.911Z,14.20
2022-09-24T19:15:29.607Z,14.20
2022-09-24T19:18:54.274Z,14.10
2022-09-24T19:22:19.217Z,14.20
2022-09-24T19:25:43.420Z,14.20
2022-09-24T19:29:07.127Z,14.20
2022-09-24T19:32:30.782Z,14.20
2022-09-24T19:35:56.425Z,14.10
2022-09-24T19:39:21.408Z,14.20
2022-09-24T19:42:45.010Z,14.10
2022-09-24T19:46:10.743Z,14.10
2022-09-24T19:49:34.340Z,14.10
2022-09-24T19:52:57.877Z,14.20
2022-09-24T19:56:25.252Z,14.10
2022-09-24T19:59:48.782Z,14.10
2022-09-24T20:03:13.407Z,14.10
2022-09-24T20:06:37.973Z,14.10
2022-09-24T20:10:01.657Z,14.00
2022-09-24T20:13:29.677Z,14.00
2022-09-24T20:16:53.231Z,13.90
2022-09-24T20:20:16.977Z,13.80
2022-09-24T20:23:40.553Z,13.80
2022-09-24T20:27:21.487Z,13.80
2022-09-24T20:30:46.826Z,13.80
2022-09-24T20:34:10.397Z,13.70
2022-09-24T20:37:34.052Z,13.70
2022-09-24T20:40:57.929Z,13.70
2022-09-24T20:44:21.970Z,13.70
2022-09-24T20:47:49.834Z,13.70
2022-09-24T20:51:15.887Z,13.60
2022-09-24T20:54:39.429Z,13.60
2022-09-24T20:58:03.035Z,13.60
2022-09-24T21:01:27.159Z,13.60
2022-09-24T21:04:52.314Z,13.60
2022-09-24T21:08:16.681Z,13.60
2022-09-24T21:11:41.822Z,13.60
2022-09-24T21:19:22.320Z,13.60
2022-09-24T21:22:47.225Z,13.60
2022-09-24T21:26:12.381Z,13.60
2022-09-24T21:29:35.960Z,13.60
2022-09-24T21:32:59.554Z,13.60
2022-09-24T21:36:25.394Z,13.50
2022-09-24T21:39:50.281Z,13.40
2022-09-24T21:43:14.257Z,13.30
2022-09-24T21:46:38.335Z,13.30
2022-09-24T21:50:03.119Z,13.30
2022-09-24T21:53:26.701Z,13.40
2022-09-24T21:56:54.166Z,13.40
2022-09-24T22:00:18.251Z,13.30
2022-09-24T22:03:47.560Z,13.30
2022-09-24T22:07:12.831Z,13.20
2022-09-24T22:10:38.393Z,13.20
2022-09-24T22:14:03.846Z,13.20
2022-09-24T22:17:28.327Z,13.20
2022-09-24T22:20:52.033Z,13.30
2022-09-24T22:24:16.408Z,13.30
2022-09-24T22:27:40.078Z,13.30
2022-09-24T22:31:08.072Z,13.30
2022-09-24T22:34:54.563Z,13.30
2022-09-24T22:38:18.774Z,13.30
2022-09-24T22:41:43.976Z,13.30
2022-09-24T22:45:08.728Z,13.30
2022-09-24T22:48:34.411Z,13.30
2022-09-24T22:51:59.046Z,13.30
2022-09-24T22:55:23.082Z,13.20
2022-09-24T22:58:52.447Z,13.20
2022-09-24T23:02:16.909Z,13.20
2022-09-24T23:05:43.009Z,13.30
2022-09-24T23:09:07.104Z,13.20
2022-09-24T23:12:33.406Z,13.20
2022-09-24T23:15:57.867Z,13.20
2022-09-24T23:19:21.877Z,13.30
2022-09-24T23:22:49.755Z,13.20
2022-09-24T23:26:17.029Z,13.20
2022-09-24T23:29:40.698Z,13.20
2022-09-24T23:33:07.517Z,13.20
2022-09-24T23:36:33.057Z,13.20
2022-09-24T23:40:01.459Z,13.20
2022-09-24T23:43:28.258Z,13.20
2022-09-24T23:46:51.998Z,13.20
2022-09-24T23:50:15.917Z,13.20
2022-09-24T23:53:41.357Z,13.10
2022-09-24T23:57:07.499Z,13.10
